createdAt,value
2022-09-01T04:10:00.158Z,17.50
2022-09-01T04:12:27.196Z,17.40
2022-09-01T04:14:53.911Z,17.40
2022-09-01T04:17:39.318Z,17.40
2022-09-01T04:20:09.335Z,17.30
2022-09-01T04:22:37.958Z,17.30
2022-09-01T04:25:05.794Z,17.40
2022-09-01T13:52:34.923Z,24.20
2022-09-01T13:55:01.765Z,24.40
2022-09-01T13:57:28.532Z,24.20
2022-09-01T14:00:03.541Z,24.10
2022-09-01T14:02:41.080Z,24.30
2022-09-01T14:38:27.371Z,25.90
2022-09-01T14:40:54.238Z,25.50
2022-09-01T14:43:21.929Z,25.50
2022-09-01T14:45:49.331Z,26.00
2022-09-01T14:48:17.296Z,26.30
2022-09-01T14:50:45.590Z,26.00
2022-09-01T14:53:12.378Z,26.10
2022-09-01T14:55:39.302Z,26.50
2022-09-01T14:58:06.130Z,26.40
2022-09-01T15:00:35.839Z,26.60
2022-09-01T15:03:02.861Z,27.10
2022-09-01T15:05:29.636Z,27.30
2022-09-01T15:32:28.531Z,28.20
2022-09-01T15:39:11.303Z,27.70
2022-09-01T15:42:05.334Z,28.00
2022-09-01T15:48:16.964Z,27.90
2022-09-01T15:59:13.869Z,28.50
2022-09-01T16:02:26.676Z,28.30
2022-09-01T16:08:43.726Z,27.20
2022-09-01T16:14:52.032Z,26.90
2022-09-01T16:17:33.039Z,26.70
2022-09-01T16:20:02.044Z,26.10
2022-09-01T16:22:31.755Z,26.20
2022-09-01T16:25:04.389Z,25.80
2022-09-01T16:31:33.152Z,25.40
2022-09-01T16:34:12.986Z,26.20
2022-09-01T16:36:45.501Z,26.00
2022-09-01T16:39:12.366Z,25.70
2022-09-01T16:41:44.026Z,24.90
2022-09-01T16:44:43.639Z,25.10
2022-09-01T16:47:20.313Z,24.70
2022-09-01T16:50:05.178Z,24.90
2022-09-01T16:52:38.412Z,25.40
2022-09-01T16:55:24.022Z,25.40
2022-09-01T16:58:03.154Z,24.80
2022-09-01T17:00:37.310Z,24.30
2022-09-01T17:03:16.931Z,24.70
2022-09-01T17:05:48.903Z,24.70
2022-09-01T17:08:15.690Z,23.90
2022-09-01T17:10:46.458Z,24.20
2022-09-01T17:13:20.118Z,24.00
2022-09-01T17:16:02.454Z,24.20
2022-09-01T17:18:35.107Z,24.40
2022-09-01T17:21:08.751Z,24.20
2022-09-01T17:23:39.970Z,24.10
2022-09-01T17:26:10.019Z,24.10
2022-09-01T17:28:47.972Z,24.10
2022-09-01T17:31:18.518Z,23.60
2022-09-01T17:33:48.548Z,23.70
2022-09-01T17:36:15.826Z,23.60
2022-09-01T17:38:54.009Z,23.50
2022-09-01T17:41:34.434Z,23.50
2022-09-01T17:44:12.713Z,23.60
2022-09-01T17:47:39.333Z,23.50
2022-09-01T17:50:12.320Z,23.60
2022-09-01T17:52:58.687Z,23.30
2022-09-01T17:55:40.719Z,23.20
2022-09-01T17:58:13.992Z,23.20
2022-09-01T18:00:48.218Z,22.90
2022-09-01T18:03:33.021Z,22.90
2022-09-01T18:06:10.186Z,23.10
2022-09-01T18:08:43.333Z,23.00
2022-09-01T18:11:13.131Z,23.10
2022-09-01T18:13:52.857Z,23.20
2022-09-01T18:16:22.020Z,22.90
2022-09-01T18:18:51.017Z,22.90
2022-09-01T18:21:18.118Z,22.80
